createdAt,value
2022-09-20T00:00:04.232Z,99.99
2022-09-20T00:01:04.259Z,99.99
2022-09-20T00:02:04.178Z,99.99
2022-09-20T00:03:04.147Z,99.99
2022-09-20T00:04:04.139Z,99.99
2022-09-20T00:05:04.181Z,99.99
2022-09-20T00:06:04.143Z,99.99
2022-09-20T00:07:04.094Z,99.99
2022-09-20T00:08:04.080Z,99.99
2022-09-20T00:09:04.080Z,99.99
2022-09-20T00:10:04.057Z,99.99
2022-09-20T00:11:04.050Z,99.99
2022-09-20T00:12:04.128Z,99.99
2022-09-20T00:13:04.008Z,99.99
2022-09-20T00:14:04.003Z,99.99
2022-09-20T00:15:03.980Z,99.99
2022-09-20T00:16:04.002Z,99.99
2022-09-20T00:17:04.023Z,99.99
2022-09-20T00:18:04.057Z,99.99
2022-09-20T00:19:04.057Z,99.99
2022-09-20T00:20:03.910Z,99.99
2022-09-20T00:21:03.899Z,99.99
2022-09-20T00:22:03.904Z,99.99
2022-09-20T00:23:03.894Z,99.99
2022-09-20T00:24:03.971Z,99.99
2022-09-20T00:25:04.664Z,99.99
2022-09-20T00:26:03.843Z,99.99
2022-09-20T00:27:03.831Z,99.99
2022-09-20T00:28:03.815Z,99.99
2022-09-20T00:29:04.757Z,99.99
2022-09-20T00:30:03.884Z,99.99
2022-09-20T00:31:03.777Z,99.99
2022-09-20T00:32:03.814Z,99.99
2022-09-20T00:33:03.741Z,99.99
2022-09-20T00:34:03.727Z,99.99
2022-09-20T00:35:04.663Z,99.99
2022-09-20T00:36:03.818Z,99.99
2022-09-20T00:37:03.688Z,99.99
2022-09-20T00:38:03.662Z,99.99
2022-09-20T00:39:03.669Z,99.99
2022-09-20T00:40:03.677Z,99.99
2022-09-20T00:41:03.638Z,99.99
2022-09-20T00:42:03.650Z,99.99
2022-09-20T00:43:03.615Z,99.99
2022-09-20T00:44:03.608Z,99.99
2022-09-20T00:45:03.606Z,99.99
2022-09-20T00:46:03.588Z,99.99
2022-09-20T00:47:03.561Z,99.99
2022-09-20T00:48:03.648Z,99.99
2022-09-20T00:49:03.519Z,99.99
2022-09-20T00:50:03.513Z,99.99
2022-09-20T00:51:03.488Z,99.99
2022-09-20T00:52:03.487Z,99.99
2022-09-20T00:53:03.472Z,99.99
2022-09-20T00:54:03.470Z,99.99
2022-09-20T00:55:03.438Z,99.99
2022-09-20T00:56:03.433Z,99.99
2022-09-20T00:57:03.422Z,99.99
2022-09-20T00:58:03.394Z,99.99
2022-09-20T00:59:03.395Z,99.99
2022-09-20T01:00:03.481Z,99.99
2022-09-20T01:01:03.392Z,99.99
2022-09-20T01:02:03.451Z,99.99
2022-09-20T01:03:03.327Z,99.99
2022-09-20T01:04:03.326Z,99.99
2022-09-20T01:05:03.316Z,99.99
2022-09-20T01:06:03.401Z,99.99
2022-09-20T01:07:03.286Z,99.99
2022-09-20T01:08:03.267Z,99.99
2022-09-20T01:09:03.255Z,99.99
2022-09-20T01:10:03.249Z,99.99
2022-09-20T01:11:03.237Z,99.99
2022-09-20T01:12:03.317Z,99.99
2022-09-20T01:13:03.196Z,99.99
2022-09-20T01:14:03.199Z,99.99
2022-09-20T01:15:03.872Z,99.99
2022-09-20T01:16:03.177Z,99.99
2022-09-20T01:17:03.158Z,99.99
2022-09-20T01:18:03.159Z,99.99
2022-09-20T01:19:03.140Z,99.99
2022-09-20T01:20:03.096Z,99.99
2022-09-20T01:21:03.085Z,99.99
2022-09-20T01:22:03.782Z,99.99
2022-09-20T01:23:03.067Z,99.99
2022-09-20T01:24:03.090Z,99.99
2022-09-20T01:25:03.044Z,99.99
2022-09-20T01:26:03.969Z,99.99
2022-09-20T01:27:03.007Z,99.99
2022-09-20T01:28:03.953Z,99.99
2022-09-20T01:29:03.950Z,99.99
2022-09-20T01:30:03.140Z,99.99
2022-09-20T01:31:02.978Z,99.99
2022-09-20T01:32:02.982Z,99.99
2022-09-20T01:33:02.931Z,99.99
2022-09-20T01:34:02.925Z,99.99
2022-09-20T01:35:02.900Z,99.99
2022-09-20T01:36:03.017Z,99.99
2022-09-20T01:37:02.887Z,99.99
2022-09-20T01:38:02.849Z,99.99
2022-09-20T01:39:03.547Z,99.99
2022-09-20T01:40:02.938Z,99.99
2022-09-20T01:41:02.822Z,99.99
2022-09-20T01:42:02.927Z,99.99
2022-09-20T01:43:02.794Z,99.99
2022-09-20T01:44:02.786Z,99.99
2022-09-20T01:45:02.789Z,99.99
2022-09-20T01:46:02.864Z,99.99
2022-09-20T01:47:02.748Z,99.99
2022-09-20T01:48:02.844Z,99.99
2022-09-20T01:49:02.704Z,99.99
2022-09-20T01:50:02.700Z,99.99
2022-09-20T01:51:02.689Z,99.99
2022-09-20T01:52:02.691Z,99.99
2022-09-20T01:53:02.679Z,99.99
2022-09-20T01:54:02.664Z,99.99
2022-09-20T01:55:02.642Z,99.99
2022-09-20T01:56:02.607Z,99.99
2022-09-20T01:57:02.622Z,99.99
2022-09-20T01:58:02.610Z,99.99
2022-09-20T01:59:22.541Z,99.99
2022-09-20T02:01:26.396Z,99.99
2022-09-20T02:02:15.835Z,99.99
2022-09-20T02:03:14.930Z,99.99
2022-09-20T02:04:14.672Z,99.99
2022-09-20T02:05:14.565Z,99.99
2022-09-20T02:06:14.871Z,99.99
2022-09-20T02:07:16.909Z,99.99
2022-09-20T02:08:14.499Z,99.99
2022-09-20T02:09:14.514Z,99.99
2022-09-20T02:10:14.517Z,99.99
2022-09-20T02:11:14.457Z,99.99
2022-09-20T02:12:15.135Z,99.99
2022-09-20T02:13:14.820Z,99.99
2022-09-20T02:14:26.743Z,99.99
2022-09-20T02:15:18.715Z,99.99
2022-09-20T02:16:14.430Z,99.99
2022-09-20T02:17:14.364Z,99.99
2022-09-20T02:18:14.350Z,99.99
2022-09-20T02:19:15.444Z,99.99
2022-09-20T02:20:14.336Z,99.99
2022-09-20T02:21:15.282Z,99.99
2022-09-20T02:22:14.307Z,99.99
2022-09-20T02:23:14.372Z,99.99
2022-09-20T02:24:18.619Z,99.99
2022-09-20T02:25:14.317Z,99.99
2022-09-20T02:26:14.277Z,99.99
2022-09-20T02:27:14.237Z,99.99
2022-09-20T02:28:14.244Z,99.99
2022-09-20T02:29:14.227Z,99.99
2022-09-20T02:30:18.816Z,99.99
2022-09-20T02:31:19.263Z,99.99
2022-09-20T02:32:14.199Z,99.99
2022-09-20T02:33:14.142Z,99.99
2022-09-20T02:34:17.399Z,99.99
2022-09-20T02:35:15.426Z,99.99
2022-09-20T02:36:14.088Z,99.99
2022-09-20T02:37:14.110Z,99.99
2022-09-20T02:38:14.069Z,99.99
2022-09-20T02:39:14.057Z,99.99
2022-09-20T02:40:14.133Z,99.99
2022-09-20T02:41:14.032Z,99.99
2022-09-20T02:42:14.006Z,99.99
2022-09-20T02:43:14.114Z,99.99
2022-09-20T02:44:13.992Z,99.99
2022-09-20T02:45:13.969Z,99.99
2022-09-20T02:46:14.012Z,99.99
2022-09-20T02:47:13.929Z,99.99
2022-09-20T02:48:13.929Z,99.99
2022-09-20T02:49:13.958Z,99.99
2022-09-20T02:50:13.897Z,99.99
2022-09-20T02:51:13.885Z,99.99
2022-09-20T02:52:13.884Z,99.99
2022-09-20T02:53:13.857Z,99.99
2022-09-20T02:54:13.879Z,99.99
2022-09-20T02:55:13.960Z,99.99
2022-09-20T02:56:13.846Z,99.99
2022-09-20T02:57:13.802Z,99.99
2022-09-20T02:58:13.804Z,99.99
2022-09-20T02:59:13.777Z,99.99
2022-09-20T03:00:13.752Z,99.99
2022-09-20T03:01:13.887Z,99.99
2022-09-20T03:02:13.766Z,99.99
2022-09-20T03:03:13.740Z,99.99
2022-09-20T03:04:13.718Z,99.99
2022-09-20T03:05:13.693Z,99.99
2022-09-20T03:06:13.688Z,99.99
2022-09-20T03:07:13.779Z,99.99
2022-09-20T03:08:13.654Z,99.99
2022-09-20T03:09:13.649Z,99.99
2022-09-20T03:10:13.639Z,99.99
2022-09-20T03:11:13.638Z,99.99
2022-09-20T03:12:13.595Z,99.99
2022-09-20T03:13:13.628Z,99.99
2022-09-20T03:14:13.856Z,99.99
2022-09-20T03:15:13.626Z,99.99
2022-09-20T03:16:13.566Z,99.99
2022-09-20T03:17:13.534Z,99.99
2022-09-20T03:18:13.522Z,99.99
2022-09-20T03:19:13.538Z,99.99
2022-09-20T03:20:13.486Z,99.99
2022-09-20T03:21:13.492Z,99.99
2022-09-20T03:22:14.409Z,99.99
2022-09-20T03:23:13.472Z,99.99
2022-09-20T03:24:13.453Z,99.99
2022-09-20T03:25:13.468Z,99.99
2022-09-20T03:26:13.400Z,99.99
2022-09-20T03:27:13.423Z,99.99
2022-09-20T03:28:13.394Z,99.99
2022-09-20T03:29:13.380Z,99.99
2022-09-20T03:30:13.374Z,99.99
2022-09-20T03:31:13.451Z,99.99
2022-09-20T03:32:13.430Z,99.99
2022-09-20T03:33:13.662Z,99.99
2022-09-20T03:34:13.289Z,99.99
2022-09-20T03:35:13.304Z,99.99
2022-09-20T03:36:13.976Z,99.99
2022-09-20T03:37:13.295Z,99.99
2022-09-20T03:38:13.266Z,99.99
2022-09-20T03:39:14.185Z,99.99
2022-09-20T03:40:13.292Z,99.99
2022-09-20T03:41:13.227Z,99.99
2022-09-20T03:42:13.207Z,99.99
2022-09-20T03:43:13.302Z,99.99
2022-09-20T03:44:13.154Z,99.99
2022-09-20T03:45:13.159Z,99.99
2022-09-20T03:46:13.232Z,99.99
2022-09-20T03:47:13.140Z,99.99
2022-09-20T03:48:13.137Z,99.99
2022-09-20T03:49:13.237Z,99.99
2022-09-20T03:50:13.090Z,99.99
2022-09-20T03:51:13.063Z,99.99
2022-09-20T03:52:13.054Z,99.99
2022-09-20T03:53:13.744Z,99.99
2022-09-20T03:54:13.035Z,99.99
2022-09-20T03:55:13.151Z,99.99
2022-09-20T03:56:13.011Z,99.99
2022-09-20T03:57:13.012Z,99.99
2022-09-20T03:58:12.982Z,99.99
2022-09-20T03:59:12.976Z,99.99
2022-09-20T04:00:12.938Z,99.99
2022-09-20T04:01:13.048Z,99.99
2022-09-20T04:02:12.959Z,99.99
2022-09-20T04:03:12.933Z,99.99
2022-09-20T04:04:12.898Z,99.99
2022-09-20T04:05:12.882Z,99.99
2022-09-20T04:06:12.875Z,99.99
2022-09-20T04:07:12.901Z,99.99
2022-09-20T04:08:12.833Z,99.99
2022-09-20T04:09:12.847Z,99.99
2022-09-20T04:10:12.801Z,99.99
2022-09-20T04:11:13.493Z,99.99
2022-09-20T04:12:12.800Z,99.99
2022-09-20T04:13:12.894Z,99.99
2022-09-20T04:14:12.924Z,99.99
2022-09-20T04:15:12.767Z,99.99
2022-09-20T04:16:13.764Z,99.99
2022-09-20T04:17:12.715Z,99.99
2022-09-20T04:18:12.717Z,99.99
2022-09-20T04:19:12.794Z,99.99
2022-09-20T04:20:12.674Z,99.99
2022-09-20T04:21:12.675Z,99.99
2022-09-20T04:22:12.644Z,99.99
2022-09-20T04:23:12.648Z,99.99
2022-09-20T04:24:12.629Z,99.99
2022-09-20T04:25:12.645Z,99.99
2022-09-20T04:26:12.609Z,99.99
2022-09-20T04:27:12.594Z,99.99
2022-09-20T04:28:15.360Z,99.99
2022-09-20T04:29:12.609Z,99.99
2022-09-20T04:30:12.550Z,99.99
2022-09-20T04:31:12.655Z,99.99
2022-09-20T04:32:12.634Z,99.99
2022-09-20T04:33:12.512Z,99.99
2022-09-20T04:34:12.482Z,99.99
2022-09-20T04:35:12.501Z,99.99
2022-09-20T04:36:13.183Z,99.99
2022-09-20T04:37:12.582Z,99.99
2022-09-20T04:38:12.466Z,99.99
2022-09-20T04:39:12.425Z,99.99
2022-09-20T04:40:13.151Z,99.99
2022-09-20T04:41:12.405Z,99.99
2022-09-20T04:42:12.373Z,99.99
2022-09-20T04:43:12.434Z,99.99
2022-09-20T04:44:12.358Z,99.99
2022-09-20T04:45:12.358Z,99.99
2022-09-20T04:46:12.404Z,99.99
2022-09-20T04:47:12.328Z,99.99
2022-09-20T04:48:12.305Z,99.99
2022-09-20T04:49:12.401Z,99.99
2022-09-20T04:50:12.361Z,99.99
2022-09-20T04:51:12.255Z,99.99
2022-09-20T04:52:12.253Z,99.99
2022-09-20T04:53:12.266Z,99.99
2022-09-20T04:54:12.213Z,99.99
2022-09-20T04:55:12.283Z,99.99
2022-09-20T04:56:12.197Z,99.99
2022-09-20T04:57:12.184Z,99.99
2022-09-20T04:58:12.168Z,99.99
2022-09-20T04:59:12.155Z,99.99
2022-09-20T05:00:12.125Z,99.99
2022-09-20T05:01:12.288Z,99.99
2022-09-20T05:02:12.155Z,99.99
2022-09-20T05:03:12.172Z,99.99
2022-09-20T05:04:12.128Z,99.99
2022-09-20T05:05:12.085Z,99.99
2022-09-20T05:06:12.100Z,99.99
2022-09-20T05:07:12.088Z,99.99
2022-09-20T05:08:12.035Z,99.99
2022-09-20T05:09:12.071Z,99.99
2022-09-20T05:10:12.009Z,99.99
2022-09-20T05:11:12.063Z,99.99
2022-09-20T05:12:12.013Z,99.99
2022-09-20T05:13:12.008Z,99.99
2022-09-20T05:14:11.962Z,99.99
2022-09-20T05:15:11.961Z,99.99
2022-09-20T05:16:11.971Z,99.99
2022-09-20T05:17:11.936Z,99.99
2022-09-20T05:18:11.923Z,99.99
2022-09-20T05:19:11.991Z,99.99
2022-09-20T05:20:11.882Z,99.99
2022-09-20T05:21:11.862Z,99.99
2022-09-20T05:22:11.848Z,99.99
2022-09-20T05:23:11.860Z,99.99
2022-09-20T05:24:12.622Z,99.99
2022-09-20T05:25:11.932Z,99.99
2022-09-20T05:26:12.835Z,99.99
2022-09-20T05:27:11.781Z,99.99
2022-09-20T05:28:11.763Z,99.99
2022-09-20T05:29:11.766Z,99.99
2022-09-20T05:30:11.733Z,99.99
2022-09-20T05:31:11.797Z,99.99
2022-09-20T05:32:11.769Z,99.99
2022-09-20T05:33:11.683Z,99.99
2022-09-20T05:34:11.684Z,99.99
2022-09-20T05:35:11.678Z,99.99
2022-09-20T05:36:11.668Z,99.99
2022-09-20T05:37:12.704Z,99.99
2022-09-20T05:38:11.627Z,99.99
2022-09-20T05:39:11.625Z,99.99
2022-09-20T05:40:11.670Z,99.99
2022-09-20T05:41:11.605Z,99.99
2022-09-20T05:42:12.524Z,99.99
2022-09-20T05:43:11.700Z,99.99
2022-09-20T05:44:11.572Z,99.99
2022-09-20T05:45:11.535Z,99.99
2022-09-20T05:46:11.556Z,99.99
2022-09-20T05:47:11.495Z,99.99
2022-09-20T05:48:11.480Z,99.99
2022-09-20T05:49:11.809Z,99.99
2022-09-20T05:50:11.466Z,99.99
2022-09-20T05:51:11.449Z,99.99
2022-09-20T05:52:11.428Z,99.99
2022-09-20T05:53:11.443Z,99.99
2022-09-20T05:54:11.389Z,99.99
2022-09-20T05:55:11.524Z,99.99
2022-09-20T05:56:11.394Z,99.99
2022-09-20T05:57:11.368Z,99.99
2022-09-20T05:58:11.384Z,99.99
2022-09-20T05:59:11.890Z,99.99
2022-09-20T06:00:11.338Z,99.99
2022-09-20T06:01:11.477Z,99.99
2022-09-20T06:02:11.373Z,99.99
2022-09-20T06:03:11.344Z,99.99
2022-09-20T06:04:11.295Z,99.99
2022-09-20T06:05:11.280Z,99.99
2022-09-20T06:06:11.255Z,99.99
2022-09-20T06:07:11.262Z,99.99
2022-09-20T06:08:11.204Z,99.99
2022-09-20T06:09:11.229Z,99.99
2022-09-20T06:10:11.194Z,99.99
2022-09-20T06:11:11.199Z,99.99
2022-09-20T06:12:11.166Z,99.99
2022-09-20T06:13:11.185Z,99.99
2022-09-20T06:14:11.160Z,99.99
2022-09-20T06:15:11.125Z,99.99
2022-09-20T06:16:11.165Z,99.99
2022-09-20T06:17:11.119Z,99.99
2022-09-20T06:18:11.078Z,99.99
2022-09-20T06:19:11.233Z,99.99
2022-09-20T06:20:11.070Z,99.99
2022-09-20T06:21:11.037Z,99.99
2022-09-20T06:22:11.030Z,99.99
2022-09-20T06:23:11.031Z,99.99
2022-09-20T06:24:11.014Z,99.99
2022-09-20T06:25:11.022Z,99.99
2022-09-20T06:26:10.990Z,99.99
2022-09-20T06:27:10.958Z,99.99
2022-09-20T06:28:10.949Z,99.99
2022-09-20T06:29:10.966Z,99.99
2022-09-20T06:30:10.918Z,99.99
2022-09-20T06:31:11.130Z,99.99
2022-09-20T06:32:10.902Z,99.99
2022-09-20T06:33:10.883Z,99.99
2022-09-20T06:34:10.872Z,99.99
2022-09-20T06:35:10.860Z,99.99
2022-09-20T06:36:10.838Z,99.99
2022-09-20T06:37:10.864Z,99.99
2022-09-20T06:38:10.817Z,99.99
2022-09-20T06:39:10.804Z,99.99
2022-09-20T06:40:10.821Z,99.99
2022-09-20T06:41:10.795Z,99.99
2022-09-20T06:42:10.765Z,99.99
2022-09-20T06:43:10.896Z,99.99
2022-09-20T06:44:10.744Z,99.99
2022-09-20T06:45:10.714Z,99.99
2022-09-20T06:46:10.785Z,99.99
2022-09-20T06:47:10.694Z,99.99
2022-09-20T06:48:10.690Z,99.99
2022-09-20T06:49:10.812Z,99.99
2022-09-20T06:50:11.496Z,99.99
2022-09-20T06:51:10.652Z,99.99
2022-09-20T06:52:10.627Z,99.99
2022-09-20T06:53:10.610Z,99.99
2022-09-20T06:54:10.597Z,99.99
2022-09-20T06:55:10.725Z,99.99
2022-09-20T06:56:10.585Z,99.99
2022-09-20T06:57:10.567Z,99.99
2022-09-20T06:58:10.562Z,99.99
2022-09-20T06:59:10.537Z,99.99
2022-09-20T07:00:10.517Z,99.99
2022-09-20T07:01:10.745Z,99.99
2022-09-20T07:02:10.525Z,99.99
2022-09-20T07:03:10.652Z,99.99
2022-09-20T07:04:10.473Z,99.99
2022-09-20T07:05:10.476Z,99.99
2022-09-20T07:06:10.462Z,99.99
2022-09-20T07:07:10.550Z,99.99
2022-09-20T07:08:10.415Z,99.99
2022-09-20T07:09:10.425Z,99.99
2022-09-20T07:10:10.381Z,99.99
2022-09-20T07:11:10.385Z,99.99
2022-09-20T07:12:10.388Z,99.99
2022-09-20T07:13:10.472Z,99.99
2022-09-20T07:14:10.362Z,99.99
2022-09-20T07:15:10.331Z,99.99
2022-09-20T07:16:10.349Z,99.99
2022-09-20T07:17:10.306Z,99.99
2022-09-20T07:18:10.284Z,99.99
2022-09-20T07:19:10.306Z,99.99
2022-09-20T07:20:11.000Z,99.99
2022-09-20T07:21:10.235Z,99.99
2022-09-20T07:22:10.237Z,99.99
2022-09-20T07:23:10.213Z,99.99
2022-09-20T07:24:10.195Z,99.99
2022-09-20T07:25:10.355Z,99.99
2022-09-20T07:26:10.184Z,99.99
2022-09-20T07:27:10.163Z,99.99
2022-09-20T07:28:10.146Z,99.99
2022-09-20T07:29:10.171Z,99.99
2022-09-20T07:30:10.839Z,99.99
2022-09-20T07:31:11.115Z,99.99
2022-09-20T07:32:10.103Z,99.99
2022-09-20T07:33:10.070Z,99.54
2022-09-20T07:34:10.070Z,99.43
2022-09-20T07:35:10.058Z,98.93
2022-09-20T07:36:10.020Z,98.21
2022-09-20T07:37:10.145Z,97.90
2022-09-20T07:38:09.999Z,98.61
2022-09-20T07:39:10.025Z,98.47
2022-09-20T07:40:10.071Z,98.31
2022-09-20T07:41:09.962Z,97.39
2022-09-20T07:42:09.949Z,97.60
2022-09-20T07:43:09.983Z,98.36
2022-09-20T07:44:09.954Z,98.47
2022-09-20T07:45:09.902Z,97.14
2022-09-20T07:46:09.963Z,96.88
2022-09-20T07:47:09.866Z,97.45
2022-09-20T07:48:09.863Z,96.94
2022-09-20T07:49:09.907Z,96.27
2022-09-20T07:50:09.844Z,96.84
2022-09-20T07:51:09.843Z,98.36
2022-09-20T07:52:09.838Z,97.04
2022-09-20T07:53:09.806Z,97.00
2022-09-20T07:54:09.810Z,96.79
2022-09-20T07:55:09.889Z,96.48
2022-09-20T07:56:09.758Z,95.10
2022-09-20T07:57:09.768Z,96.08
2022-09-20T07:58:09.754Z,95.97
2022-09-20T07:59:09.708Z,96.18
2022-09-20T08:00:09.690Z,96.64
2022-09-20T08:01:09.876Z,96.44
2022-09-20T08:02:09.687Z,95.73
2022-09-20T08:03:09.653Z,95.73
2022-09-20T08:04:09.647Z,95.12
2022-09-20T08:05:09.629Z,94.76
2022-09-20T08:06:09.638Z,93.74
2022-09-20T08:07:09.628Z,94.35
2022-09-20T08:08:09.603Z,94.76
2022-09-20T08:09:11.352Z,94.35
2022-09-20T08:10:09.562Z,93.44
2022-09-20T08:11:09.567Z,93.60
2022-09-20T08:14:10.549Z,92.89
2022-09-20T08:15:11.906Z,93.90
2022-09-20T08:16:09.481Z,94.82
2022-09-20T08:17:09.479Z,95.03
2022-09-20T08:18:09.458Z,94.01
2022-09-20T08:19:09.479Z,92.99
2022-09-20T08:20:09.440Z,92.58
2022-09-20T08:21:09.408Z,94.52
2022-09-20T08:22:09.437Z,94.42
2022-09-20T08:23:23.020Z,93.09
2022-09-20T08:24:10.485Z,93.09
2022-09-20T08:25:09.382Z,91.81
2022-09-20T08:26:09.348Z,93.13
2022-09-20T08:27:09.361Z,93.54
2022-09-20T08:28:09.365Z,92.42
2022-09-20T08:29:09.393Z,92.72
2022-09-20T08:30:09.330Z,92.72
2022-09-20T08:31:09.293Z,92.89
2022-09-20T08:32:09.271Z,93.29
2022-09-20T08:33:10.190Z,93.40
2022-09-20T08:34:09.245Z,92.33
2022-09-20T08:35:09.221Z,91.48
2022-09-20T08:36:09.248Z,90.39
2022-09-20T08:37:09.205Z,87.87
2022-09-20T08:40:10.250Z,87.06
2022-09-20T08:41:09.133Z,88.73
2022-09-20T08:42:09.166Z,89.59
2022-09-20T08:43:09.115Z,90.50
2022-09-20T08:44:09.102Z,92.33
2022-09-20T08:45:09.099Z,90.20
2022-09-20T08:46:09.160Z,90.81
2022-09-20T08:47:09.063Z,90.60
2022-09-20T08:48:09.154Z,92.23
2022-09-20T08:49:10.978Z,90.91
2022-09-20T08:50:09.983Z,90.09
2022-09-20T08:51:09.008Z,90.85
2022-09-20T08:52:11.751Z,91.26
2022-09-20T08:53:08.978Z,91.31
2022-09-20T08:54:09.131Z,91.52
2022-09-20T08:55:08.947Z,91.01
2022-09-20T08:56:08.941Z,90.91
2022-09-20T08:57:08.951Z,90.50
2022-09-20T08:58:09.143Z,90.81
2022-09-20T08:59:08.919Z,90.77
2022-09-20T09:00:09.015Z,91.03
2022-09-20T09:01:08.939Z,90.22
2022-09-20T09:02:09.849Z,87.77
2022-09-20T09:03:08.851Z,87.87
2022-09-20T09:04:08.910Z,87.87
2022-09-20T09:05:08.813Z,89.00
2022-09-20T09:06:12.458Z,88.69
2022-09-20T09:07:09.782Z,89.09
2022-09-20T09:08:09.731Z,88.59
2022-09-20T09:09:08.773Z,88.75
2022-09-20T09:10:08.757Z,89.26
2022-09-20T09:11:08.750Z,87.43
2022-09-20T09:12:08.776Z,87.47
2022-09-20T09:13:08.714Z,86.82
2022-09-20T09:14:09.674Z,86.82
2022-09-20T09:15:08.679Z,86.82
2022-09-20T09:16:08.680Z,87.12
2022-09-20T09:17:09.643Z,87.06
2022-09-20T09:18:08.694Z,87.16
2022-09-20T09:19:08.855Z,86.96
2022-09-20T09:20:08.629Z,86.76
2022-09-20T09:21:08.605Z,85.33
2022-09-20T09:22:08.590Z,85.43
2022-09-20T09:23:08.569Z,85.43
2022-09-20T09:24:08.597Z,85.64
2022-09-20T09:25:08.570Z,85.84
2022-09-20T09:26:08.527Z,84.31
2022-09-20T09:27:08.529Z,84.82
2022-09-20T09:28:08.520Z,85.53
2022-09-20T09:29:08.496Z,85.53
2022-09-20T09:30:08.529Z,85.23
2022-09-20T09:31:08.461Z,84.42
2022-09-20T09:32:08.514Z,85.53
2022-09-20T09:33:08.453Z,84.82
2022-09-20T09:34:08.452Z,84.11
2022-09-20T09:35:08.401Z,82.48
2022-09-20T09:36:08.507Z,82.38
2022-09-20T09:37:09.204Z,83.29
2022-09-20T09:38:08.390Z,84.58
2022-09-20T09:39:08.368Z,81.33
2022-09-20T09:40:08.428Z,82.45
2022-09-20T09:41:08.321Z,84.07
2022-09-20T09:42:08.354Z,83.12
2022-09-20T09:43:08.401Z,82.10
2022-09-20T09:44:08.283Z,82.20
2022-09-20T09:45:08.293Z,83.01
2022-09-20T09:46:08.283Z,82.67
2022-09-20T09:47:08.248Z,82.37
2022-09-20T09:48:08.288Z,83.95
2022-09-20T09:49:11.291Z,80.19
2022-09-20T09:50:09.977Z,80.19
2022-09-20T09:51:09.161Z,77.05
2022-09-20T09:52:08.204Z,76.34
2022-09-20T09:53:08.172Z,77.05
2022-09-20T09:54:08.300Z,77.97
2022-09-20T09:55:08.151Z,78.64
2022-09-20T09:56:13.349Z,77.97
2022-09-20T09:57:09.125Z,76.64
2022-09-20T09:58:08.094Z,75.63
2022-09-20T09:59:08.091Z,77.56
2022-09-20T10:00:15.722Z,81.01
2022-09-20T10:01:09.100Z,79.35
2022-09-20T10:02:08.101Z,78.03
2022-09-20T10:03:08.022Z,78.84
2022-09-20T10:04:08.089Z,75.79
2022-09-20T10:05:08.009Z,75.79
2022-09-20T10:06:08.047Z,74.58
2022-09-20T10:07:07.967Z,74.27
2022-09-20T10:08:07.961Z,74.48
2022-09-20T10:09:07.954Z,75.66
2022-09-20T10:10:07.940Z,75.89
2022-09-20T10:11:07.931Z,75.04
2022-09-20T10:12:07.976Z,74.04
2022-09-20T10:13:07.894Z,73.56
2022-09-20T10:14:07.899Z,72.68
2022-09-20T10:15:07.873Z,73.80
2022-09-20T10:16:07.913Z,72.99
2022-09-20T10:17:07.848Z,73.19
2022-09-20T10:18:08.094Z,73.46
2022-09-20T10:19:07.915Z,69.58
2022-09-20T10:20:07.860Z,69.04
2022-09-20T10:21:07.854Z,69.45
2022-09-20T10:22:07.844Z,67.69
2022-09-20T10:23:34.811Z,67.16
2022-09-20T10:24:08.952Z,68.24
2022-09-20T10:25:07.805Z,65.08
2022-09-20T10:26:07.770Z,67.60
2022-09-20T10:27:07.733Z,69.04
2022-09-20T10:28:07.694Z,70.73
2022-09-20T10:29:07.659Z,71.97
2022-09-20T10:30:07.775Z,71.33
2022-09-20T10:31:08.689Z,71.40
2022-09-20T10:32:09.185Z,69.62
2022-09-20T10:33:07.616Z,68.21
2022-09-20T10:34:07.613Z,66.42
2022-09-20T10:35:07.588Z,68.21
2022-09-20T10:36:07.696Z,66.67
2022-09-20T10:37:07.544Z,64.69
2022-09-20T10:38:07.536Z,65.55
2022-09-20T10:39:07.538Z,64.87
2022-09-20T10:40:07.558Z,67.02
2022-09-20T10:41:07.497Z,67.23
2022-09-20T10:42:07.528Z,67.46
2022-09-20T10:43:07.470Z,68.21
2022-09-20T10:44:07.469Z,70.36
2022-09-20T10:45:07.501Z,66.70
2022-09-20T10:46:31.459Z,64.18
2022-09-20T10:47:08.530Z,66.16
2022-09-20T10:48:07.424Z,64.75
2022-09-20T10:49:07.429Z,65.26
2022-09-20T10:50:07.392Z,63.78
2022-09-20T10:51:07.358Z,63.43
2022-09-20T10:52:07.356Z,64.98
2022-09-20T10:53:07.465Z,65.61
2022-09-20T10:54:07.347Z,67.13
2022-09-20T10:55:07.308Z,64.78
2022-09-20T10:56:07.300Z,64.84
2022-09-20T10:57:07.294Z,66.16
2022-09-20T10:58:07.271Z,64.95
2022-09-20T10:59:07.385Z,62.65
2022-09-20T11:00:07.258Z,61.61
2022-09-20T11:01:07.270Z,60.55
2022-09-20T11:02:07.268Z,64.17
2022-09-20T11:03:07.193Z,62.57
2022-09-20T11:04:07.193Z,61.87
2022-09-20T11:05:07.298Z,59.52
2022-09-20T11:06:07.164Z,61.53
2022-09-20T11:07:07.161Z,63.20
2022-09-20T11:08:07.157Z,64.11
2022-09-20T11:09:09.637Z,64.89
2022-09-20T11:10:09.185Z,67.31
2022-09-20T11:11:07.106Z,63.25
2022-09-20T11:12:07.099Z,64.76
2022-09-20T11:13:07.058Z,62.29
2022-09-20T11:14:07.070Z,59.20
2022-09-20T11:15:07.036Z,60.11
2022-09-20T11:16:07.101Z,64.13
2022-09-20T11:17:07.021Z,60.98
2022-09-20T11:18:07.960Z,61.96
2022-09-20T11:19:06.992Z,55.91
2022-09-20T11:20:07.823Z,56.03
2022-09-20T11:21:07.061Z,62.66
2022-09-20T11:22:07.103Z,67.23
2022-09-20T11:23:06.928Z,68.94
2022-09-20T11:24:07.010Z,69.10
2022-09-20T11:25:06.914Z,66.72
2022-09-20T11:26:06.905Z,64.34
2022-09-20T11:27:06.880Z,64.39
2022-09-20T11:28:06.982Z,61.41
2022-09-20T11:29:06.866Z,57.61
2022-09-20T11:30:06.831Z,59.46
2022-09-20T11:31:06.837Z,59.46
2022-09-20T11:32:06.873Z,56.65
2022-09-20T11:33:06.796Z,53.42
2022-09-20T11:34:06.944Z,56.48
2022-09-20T11:35:06.774Z,59.52
2022-09-20T11:36:06.746Z,58.47
2022-09-20T11:37:06.761Z,60.11
2022-09-20T11:38:06.727Z,62.05
2022-09-20T11:39:06.848Z,61.29
2022-09-20T11:40:06.862Z,59.47
2022-09-20T11:41:06.689Z,60.41
2022-09-20T11:42:06.669Z,59.53
2022-09-20T11:43:06.681Z,56.57
2022-09-20T11:44:06.662Z,60.85
2022-09-20T11:45:06.631Z,60.33
2022-09-20T11:46:06.823Z,63.46
2022-09-20T11:47:06.607Z,64.78
2022-09-20T11:48:06.592Z,68.51
2022-09-20T11:49:06.596Z,61.95
2022-09-20T11:50:06.563Z,64.40
2022-09-20T11:51:06.565Z,68.21
2022-09-20T11:52:06.675Z,63.73
2022-09-20T11:53:06.524Z,61.52
2022-09-20T11:54:06.561Z,63.93
2022-09-20T11:55:06.500Z,65.95
2022-09-20T11:56:06.482Z,66.29
2022-09-20T11:57:06.506Z,65.11
2022-09-20T11:58:06.588Z,65.44
2022-09-20T11:59:06.444Z,66.01
2022-09-20T12:00:06.426Z,66.92
2022-09-20T12:01:06.431Z,66.35
2022-09-20T12:02:06.509Z,68.16
2022-09-20T12:03:06.542Z,67.63
2022-09-20T12:04:31.172Z,67.80
2022-09-20T12:05:07.367Z,68.37
2022-09-20T12:06:06.361Z,68.33
2022-09-20T12:07:10.573Z,65.18
2022-09-20T12:08:07.330Z,63.64
2022-09-20T12:09:06.322Z,61.98
2022-09-20T12:10:06.318Z,64.20
2022-09-20T12:11:06.293Z,63.36
2022-09-20T12:12:06.274Z,61.32
2022-09-20T12:13:06.253Z,65.12
2022-09-20T12:14:06.232Z,63.27
2022-09-20T12:15:06.244Z,63.53
2022-09-20T12:16:06.454Z,66.96
2022-09-20T12:17:06.201Z,68.80
2022-09-20T12:18:09.178Z,71.37
2022-09-20T12:19:06.260Z,72.11
2022-09-20T12:20:06.156Z,74.07
2022-09-20T12:21:06.163Z,75.01
2022-09-20T12:22:06.264Z,75.42
2022-09-20T12:23:07.088Z,77.64
2022-09-20T12:24:06.146Z,76.43
2022-09-20T12:25:06.095Z,77.48
2022-09-20T12:26:06.102Z,77.88
2022-09-20T12:27:06.074Z,77.41
2022-09-20T12:28:06.087Z,76.94
2022-09-20T12:29:06.049Z,78.64
2022-09-20T12:30:06.022Z,82.03
2022-09-20T12:31:06.030Z,82.43
2022-09-20T12:32:06.009Z,84.46
2022-09-20T12:33:05.988Z,84.80
2022-09-20T12:34:06.181Z,85.52
2022-09-20T12:35:05.958Z,86.83
2022-09-20T12:36:05.937Z,87.34
2022-09-20T12:37:05.944Z,87.79
2022-09-20T12:38:05.912Z,87.99
2022-09-20T12:39:05.920Z,87.08
2022-09-20T12:40:05.967Z,88.10
2022-09-20T12:41:05.871Z,88.40
2022-09-20T12:42:05.889Z,88.20
2022-09-20T12:43:05.851Z,88.81
2022-09-20T12:44:05.832Z,88.81
2022-09-20T12:45:05.835Z,88.71
2022-09-20T12:46:11.307Z,89.22
2022-09-20T12:47:06.794Z,88.71
2022-09-20T12:48:05.781Z,89.01
2022-09-20T12:49:05.871Z,88.81
2022-09-20T12:50:05.926Z,88.65
2022-09-20T12:51:05.757Z,89.87
2022-09-20T12:52:05.866Z,90.11
2022-09-20T12:53:05.714Z,91.68
2022-09-20T12:54:05.738Z,91.83
2022-09-20T12:55:10.243Z,92.33
2022-09-20T12:56:06.666Z,94.42
2022-09-20T12:57:05.670Z,94.31